Time;durP1;ratioP1;P1;durP2;ratioP2;P2;SDS_P1;SDS_P2;PMS_P1;PMS_P2;Temp;Humidity;BMP_temperature;BMP_pressure;BME280_temperature;BME280_humidity;BME280_pressure;Samples;Min_cycle;Max_cycle;Signal;HPM_P1;HPM_P2
2021/03/10 00:00:34;;;;;;;28.08;19.70;;;4.70;99.90;;;;;;5046671;28;20107;-89
2021/03/10 00:03:00;;;;;;;27.80;20.13;;;4.80;99.90;;;;;;5048786;28;20045;-90
2021/03/10 00:05:27;;;;;;;24.00;17.90;;;4.80;99.90;;;;;;5042155;28;20048;-90
2021/03/10 00:07:54;;;;;;;25.20;19.02;;;4.90;99.90;;;;;;5049000;28;20051;-89
2021/03/10 00:10:20;;;;;;;25.67;18.17;;;4.90;99.90;;;;;;5049000;28;20056;-90
2021/03/10 00:12:47;;;;;;;28.60;18.25;;;5.00;99.90;;;;;;5049216;28;20546;-90
2021/03/10 00:15:14;;;;;;;23.35;16.98;;;5.10;99.90;;;;;;5053863;28;20053;-90
2021/03/10 00:17:42;;;;;;;24.95;17.50;;;5.10;99.90;;;;;;5049449;28;20057;-89
2021/03/10 00:20:12;;;;;;;22.52;16.20;;;5.10;99.90;;;;;;5066199;27;20482;-90
2021/03/10 00:22:39;;;;;;;21.92;16.88;;;5.20;99.90;;;;;;5050461;28;20091;-90
2021/03/10 00:25:07;;;;;;;22.88;15.98;;;5.20;99.90;;;;;;5049427;28;20049;-90
2021/03/10 00:27:33;;;;;;;21.50;16.03;;;5.20;99.90;;;;;;5050626;28;20049;-89
2021/03/10 00:30:02;;;;;;;25.70;16.33;;;5.20;99.90;;;;;;5052726;28;20064;-89
2021/03/10 00:32:29;;;;;;;19.98;15.38;;;5.20;99.90;;;;;;5052544;28;20071;-90
2021/03/10 00:34:56;;;;;;;25.17;15.65;;;5.30;99.90;;;;;;5047963;28;20098;-90
2021/03/10 00:37:23;;;;;;;19.65;15.02;;;5.30;99.90;;;;;;5040858;28;20049;-90
2021/03/10 00:39:51;;;;;;;21.05;15.32;;;5.30;99.90;;;;;;5030176;28;20057;-90
2021/03/10 00:42:18;;;;;;;21.23;14.98;;;5.30;99.90;;;;;;5051757;28;20060;-90
2021/03/10 00:44:44;;;;;;;21.45;15.60;;;5.30;99.90;;;;;;5050573;28;20033;-90
2021/03/10 00:47:12;;;;;;;20.67;16.70;;;5.40;99.90;;;;;;5046403;28;20122;-89
2021/03/10 00:49:41;;;;;;;24.85;16.75;;;5.40;99.90;;;;;;5065431;28;20052;-89
2021/03/10 00:52:08;;;;;;;24.60;16.27;;;5.40;99.90;;;;;;5068182;28;20040;-89
2021/03/10 00:54:35;;;;;;;24.13;15.77;;;5.40;99.90;;;;;;5050960;28;20036;-89
2021/03/10 00:57:02;;;;;;;20.58;15.10;;;5.50;99.90;;;;;;5062707;28;20048;-89
2021/03/10 00:59:29;;;;;;;23.67;15.57;;;5.50;99.90;;;;;;5054274;28;20127;-90
2021/03/10 01:01:56;;;;;;;20.02;16.23;;;5.50;99.90;;;;;;5051376;28;20143;-89
2021/03/10 01:04:22;;;;;;;19.92;15.20;;;5.50;99.90;;;;;;5052012;28;20051;-90
2021/03/10 01:06:49;;;;;;;20.17;14.75;;;5.50;99.90;;;;;;5051687;28;20045;-90
2021/03/10 01:09:16;;;;;;;22.08;15.40;;;5.60;99.90;;;;;;5073142;28;20048;-90
2021/03/10 01:11:43;;;;;;;19.83;15.30;;;5.50;99.90;;;;;;5056492;28;20121;-89
2021/03/10 01:14:10;;;;;;;20.27;14.25;;;5.60;99.90;;;;;;5074101;28;20391;-90
2021/03/10 01:16:37;;;;;;;21.75;15.60;;;5.60;99.90;;;;;;5068438;28;20055;-90
2021/03/10 01:19:05;;;;;;;19.70;14.52;;;5.60;99.90;;;;;;5048918;28;20399;-90
2021/03/10 01:21:31;;;;;;;20.80;14.93;;;5.70;99.90;;;;;;5050532;28;20041;-89
2021/03/10 01:23:58;;;;;;;19.63;14.27;;;5.70;99.90;;;;;;5045506;28;20052;-89
2021/03/10 01:26:24;;;;;;;17.42;14.00;;;5.70;99.90;;;;;;5059820;28;20043;-90
2021/03/10 01:28:51;;;;;;;24.50;14.18;;;5.80;99.90;;;;;;5057693;28;20052;-89
2021/03/10 01:31:17;;;;;;;15.52;13.32;;;5.80;99.90;;;;;;5051675;28;20049;-89
2021/03/10 01:33:44;;;;;;;21.17;13.80;;;5.80;99.90;;;;;;5053731;28;20040;-89
2021/03/10 01:36:11;;;;;;;15.50;12.52;;;5.90;99.90;;;;;;5053925;28;20036;-90
2021/03/10 01:38:39;;;;;;;19.17;12.93;;;5.90;99.90;;;;;;5051486;28;20044;-90
2021/03/10 01:41:05;;;;;;;16.70;12.82;;;6.00;99.90;;;;;;5053025;28;20049;-90
2021/03/10 01:43:32;;;;;;;21.10;13.55;;;6.00;99.90;;;;;;5047954;28;20515;-90
2021/03/10 01:46:00;;;;;;;20.23;12.55;;;6.10;99.90;;;;;;5047453;28;20041;-90
2021/03/10 01:48:27;;;;;;;17.70;11.73;;;6.10;99.90;;;;;;5055155;28;20530;-90
2021/03/10 01:50:55;;;;;;;18.67;12.10;;;6.20;99.90;;;;;;5049009;28;20099;-90
2021/03/10 01:53:22;;;;;;;18.80;11.63;;;6.20;99.90;;;;;;5047624;28;20136;-90
2021/03/10 01:55:53;;;;;;;17.63;12.32;;;6.30;99.90;;;;;;5052723;28;20127;-90
2021/03/10 01:58:19;;;;;;;16.95;11.35;;;6.40;99.90;;;;;;5050855;28;20044;-90
2021/03/10 02:00:46;;;;;;;15.07;11.00;;;6.40;99.90;;;;;;5050020;28;20049;-90
2021/03/10 02:03:13;;;;;;;18.15;10.00;;;6.40;99.90;;;;;;5065007;28;20044;-90
2021/03/10 02:05:40;;;;;;;12.20;9.50;;;6.50;99.90;;;;;;5049789;28;20041;-90
2021/03/10 02:08:20;;;;;;;14.35;9.13;;;6.60;99.90;;;;;;5044150;28;20047;-90
2021/03/10 02:10:53;;;;;;;13.57;8.50;;;6.60;99.90;;;;;;5037727;28;20060;-90
2021/03/10 02:13:36;;;;;;;12.43;7.65;;;6.70;99.90;;;;;;5064626;28;20045;-90
2021/03/10 02:16:28;;;;;;;16.33;7.93;;;6.70;99.90;;;;;;5050090;28;20071;-90
2021/03/10 02:19:11;;;;;;;13.30;6.97;;;6.80;99.90;;;;;;5065088;28;20042;-90
2021/03/10 02:22:03;;;;;;;8.23;6.28;;;6.80;99.90;;;;;;5047381;28;21443;-90
2021/03/10 02:24:51;;;;;;;12.65;6.10;;;6.90;99.90;;;;;;5048158;28;20131;-90
2021/03/10 02:27:33;;;;;;;13.27;5.80;;;6.90;99.90;;;;;;5051724;28;20280;-90
2021/03/10 02:30:10;;;;;;;8.50;5.47;;;7.00;99.90;;;;;;5067927;28;20059;-89
2021/03/10 02:32:44;;;;;;;12.10;5.30;;;7.00;99.90;;;;;;5049472;28;20105;-89
2021/03/10 02:35:11;;;;;;;8.20;5.53;;;7.00;99.90;;;;;;5067190;28;20060;-90
2021/03/10 02:37:43;;;;;;;9.13;4.97;;;7.10;99.90;;;;;;5047941;28;20478;-90
2021/03/10 02:40:11;;;;;;;9.05;4.90;;;7.10;99.90;;;;;;5044805;28;20060;-90
2021/03/10 02:42:39;;;;;;;10.55;5.53;;;7.20;99.90;;;;;;5050889;28;20114;-90
2021/03/10 02:45:07;;;;;;;9.70;4.43;;;7.20;99.90;;;;;;5065242;28;20498;-90
2021/03/10 02:47:36;;;;;;;10.53;5.03;;;7.20;99.90;;;;;;5047883;28;20045;-90
2021/03/10 02:50:04;;;;;;;;;;;7.30;99.90;;;;;;5049108;28;20399;-90
2021/03/10 02:52:33;;;;;;;10.75;4.82;;;7.30;99.90;;;;;;5045630;28;19921;-90
2021/03/10 02:55:00;;;;;;;7.55;4.57;;;7.30;99.90;;;;;;5048968;28;20047;-90
2021/03/10 02:57:28;;;;;;;9.18;4.45;;;7.30;99.90;;;;;;5050995;28;21474;-89
2021/03/10 02:59:56;;;;;;;6.85;4.47;;;7.30;99.90;;;;;;5045322;28;20044;-89
2021/03/10 03:02:22;;;;;;;14.70;4.90;;;7.30;99.90;;;;;;5029751;28;20053;-90
2021/03/10 03:04:52;;;;;;;7.63;4.47;;;7.40;99.90;;;;;;5015798;28;20057;-90
2021/03/10 03:07:19;;;;;;;;;;;7.40;99.90;;;;;;5029978;28;20044;-91
2021/03/10 03:09:46;;;;;;;12.27;4.30;;;7.40;99.90;;;;;;5024535;28;19925;-90
2021/03/10 03:12:14;;;;;;;10.90;4.45;;;7.40;99.90;;;;;;5031859;28;20049;-90
2021/03/10 03:14:43;;;;;;;8.73;4.30;;;7.50;99.90;;;;;;5041916;28;20044;-90
2021/03/10 03:17:10;;;;;;;7.90;3.85;;;7.50;99.90;;;;;;5062767;28;20078;-90
2021/03/10 03:19:37;;;;;;;11.40;3.92;;;7.50;99.90;;;;;;5087471;27;20046;-90
2021/03/10 03:22:06;;;;;;;15.63;4.43;;;7.50;99.90;;;;;;5062988;28;20133;-90
2021/03/10 03:24:34;;;;;;;8.25;3.88;;;7.60;99.90;;;;;;5064214;27;20070;-90
2021/03/10 03:27:02;;;;;;;7.78;3.90;;;7.60;99.90;;;;;;5069377;28;20477;-90
2021/03/10 03:29:31;;;;;;;8.20;4.50;;;7.60;99.90;;;;;;5068788;28;20609;-90
2021/03/10 03:31:58;;;;;;;6.20;3.83;;;7.60;99.90;;;;;;5068349;28;20117;-90
2021/03/10 03:34:26;;;;;;;6.97;3.50;;;7.70;99.90;;;;;;5062952;28;20076;-90
2021/03/10 03:36:53;;;;;;;5.82;3.58;;;7.70;99.90;;;;;;5067165;28;20168;-88
2021/03/10 03:39:21;;;;;;;10.85;3.65;;;7.70;99.90;;;;;;5074603;28;20111;-89
2021/03/10 03:41:50;;;;;;;6.60;3.35;;;7.80;99.90;;;;;;5071777;28;20052;-90
2021/03/10 03:44:18;;;;;;;11.35;3.60;;;7.80;99.90;;;;;;5072512;28;20051;-90
2021/03/10 03:46:46;;;;;;;9.57;3.60;;;7.80;99.90;;;;;;5073022;28;20040;-90
2021/03/10 03:49:15;;;;;;;7.75;3.70;;;7.90;99.90;;;;;;5073135;27;20036;-90
2021/03/10 03:51:42;;;;;;;9.80;3.05;;;7.90;99.90;;;;;;5073535;28;20050;-90
2021/03/10 03:54:08;;;;;;;7.22;3.72;;;7.90;99.90;;;;;;5079679;28;20056;-90
2021/03/10 03:56:35;;;;;;;8.05;3.40;;;8.00;99.90;;;;;;5072686;28;20068;-89
2021/03/10 03:59:04;;;;;;;7.75;3.53;;;8.00;99.90;;;;;;5067376;28;20068;-89
2021/03/10 04:01:31;;;;;;;9.18;2.97;;;8.00;99.90;;;;;;5069311;28;20159;-89
2021/03/10 04:03:58;;;;;;;8.02;3.42;;;8.10;99.90;;;;;;5067465;28;20118;-90
2021/03/10 04:06:24;;;;;;;10.68;3.35;;;8.10;99.90;;;;;;5071363;28;20497;-89
2021/03/10 04:08:51;;;;;;;7.88;3.33;;;8.10;99.90;;;;;;5074338;28;20097;-90
2021/03/10 04:11:18;;;;;;;5.90;3.40;;;8.20;99.90;;;;;;5068842;28;20050;-88
2021/03/10 04:13:45;;;;;;;9.43;3.03;;;8.20;99.90;;;;;;5072409;28;20040;-90
2021/03/10 04:16:11;;;;;;;6.63;2.95;;;8.20;99.90;;;;;;5072628;28;20039;-90
2021/03/10 04:18:40;;;;;;;8.43;3.08;;;8.20;99.90;;;;;;5069092;28;20094;-90
2021/03/10 04:21:08;;;;;;;5.28;2.75;;;8.30;99.90;;;;;;5076197;28;20053;-90
2021/03/10 04:23:35;;;;;;;8.05;3.13;;;8.30;99.90;;;;;;5072954;28;20040;-90
2021/03/10 04:26:02;;;;;;;9.30;3.00;;;8.30;99.90;;;;;;5087720;28;20487;-90
2021/03/10 04:28:28;;;;;;;11.05;4.05;;;8.30;99.90;;;;;;5069084;28;20538;-89
2021/03/10 04:30:55;;;;;;;8.18;2.95;;;8.30;99.90;;;;;;5068762;28;20040;-90
2021/03/10 04:33:22;;;;;;;6.93;3.10;;;8.40;99.90;;;;;;5075679;28;20048;-90
2021/03/10 04:35:49;;;;;;;9.20;3.30;;;8.40;99.90;;;;;;5053879;28;20101;-90
2021/03/10 04:38:28;;;;;;;6.85;3.70;;;8.40;99.90;;;;;;5065859;28;20085;-89
2021/03/10 04:40:54;;;;;;;14.27;3.85;;;8.40;99.90;;;;;;5068883;28;20044;-90
2021/03/10 04:43:21;;;;;;;7.95;4.05;;;8.40;99.90;;;;;;5060068;28;20044;-90
2021/03/10 04:45:48;;;;;;;10.02;3.05;;;8.40;99.90;;;;;;5067969;28;20063;-90
2021/03/10 04:48:15;;;;;;;9.68;3.45;;;8.40;99.90;;;;;;5071734;28;20044;-90
2021/03/10 04:50:42;;;;;;;9.05;3.38;;;8.40;99.90;;;;;;5070083;28;20048;-90
2021/03/10 04:53:09;;;;;;;7.70;2.60;;;8.40;99.90;;;;;;5075784;28;20419;-90
2021/03/10 04:55:35;;;;;;;6.78;2.50;;;8.40;99.90;;;;;;5067056;28;20040;-90
2021/03/10 04:58:03;;;;;;;11.70;3.38;;;8.40;99.90;;;;;;5067963;28;20397;-90
2021/03/10 05:00:30;;;;;;;10.25;3.35;;;8.40;99.90;;;;;;5074070;28;20492;-90
2021/03/10 05:02:57;;;;;;;10.48;3.17;;;8.40;99.90;;;;;;5061081;28;20052;-90
2021/03/10 05:05:23;;;;;;;7.95;3.17;;;8.50;99.90;;;;;;5055420;28;20379;-90
2021/03/10 05:07:50;;;;;;;12.38;3.53;;;8.40;99.90;;;;;;5061198;28;20040;-90
2021/03/10 05:10:17;;;;;;;7.38;3.40;;;8.50;99.90;;;;;;5069124;28;20044;-90
2021/03/10 05:12:44;;;;;;;10.00;3.05;;;8.50;99.90;;;;;;5066519;28;20482;-90
2021/03/10 05:15:11;;;;;;;7.15;2.72;;;8.50;99.90;;;;;;5055709;28;20048;-89
2021/03/10 05:17:38;;;;;;;9.45;3.45;;;8.50;99.90;;;;;;5057539;28;20044;-90
2021/03/10 05:20:07;;;;;;;10.40;3.08;;;8.50;99.90;;;;;;5047558;28;20045;-90
2021/03/10 05:22:34;;;;;;;9.48;2.92;;;8.50;99.90;;;;;;5048865;28;20056;-90
2021/03/10 05:25:01;;;;;;;7.65;3.47;;;8.50;99.90;;;;;;5051304;28;20040;-90
2021/03/10 05:27:31;;;;;;;13.02;3.90;;;8.50;99.90;;;;;;5070708;28;20394;-89
2021/03/10 05:29:59;;;;;;;8.35;3.42;;;8.50;99.90;;;;;;5046531;28;20045;-90
2021/03/10 05:32:26;;;;;;;7.68;3.35;;;8.50;99.90;;;;;;5051551;28;20051;-91
2021/03/10 05:34:53;;;;;;;7.40;3.20;;;8.50;99.90;;;;;;5052921;28;20068;-90
2021/03/10 05:37:20;;;;;;;11.57;4.00;;;8.60;99.90;;;;;;5048810;28;20420;-90
2021/03/10 05:39:47;;;;;;;8.82;3.33;;;8.60;99.90;;;;;;5050168;28;20052;-90
2021/03/10 05:42:14;;;;;;;9.13;3.45;;;8.60;99.90;;;;;;5053912;28;20052;-90
2021/03/10 05:44:41;;;;;;;9.63;3.55;;;8.60;99.90;;;;;;5049444;28;20474;-90
2021/03/10 05:47:08;;;;;;;8.32;3.38;;;8.60;99.90;;;;;;5052277;28;20047;-90
2021/03/10 05:49:35;;;;;;;7.55;3.78;;;8.60;99.90;;;;;;5056059;28;20037;-90
2021/03/10 05:52:05;;;;;;;5.53;3.35;;;8.60;99.90;;;;;;5053148;28;20040;-90
2021/03/10 05:54:36;;;;;;;8.85;3.40;;;8.60;99.90;;;;;;5061424;28;20101;-89
2021/03/10 05:57:07;;;;;;;8.80;3.42;;;8.60;99.90;;;;;;5053377;28;20044;-89
2021/03/10 05:59:34;;;;;;;6.05;3.25;;;8.60;99.90;;;;;;5048833;28;20066;-90
2021/03/10 06:02:01;;;;;;;8.02;3.58;;;8.60;99.90;;;;;;5045615;28;20037;-89
2021/03/10 06:04:41;;;;;;;6.43;3.65;;;8.60;99.90;;;;;;5046125;28;20048;-90
2021/03/10 06:07:25;;;;;;;7.63;2.90;;;8.60;99.90;;;;;;5048360;28;20047;-89
2021/03/10 06:10:05;;;;;;;8.18;3.22;;;8.60;99.90;;;;;;5047121;28;20235;-90
2021/03/10 06:12:40;;;;;;;8.68;3.80;;;8.60;99.90;;;;;;5054206;28;20110;-90
2021/03/10 06:15:13;;;;;;;9.35;3.30;;;8.60;99.90;;;;;;5052998;28;20040;-96
2021/03/10 06:17:46;;;;;;;7.00;3.13;;;8.60;99.90;;;;;;5040018;28;20114;-90
2021/03/10 06:20:28;;;;;;;9.02;3.00;;;8.70;99.90;;;;;;5076025;27;20091;-90
2021/03/10 06:22:55;;;;;;;11.27;3.40;;;8.70;99.90;;;;;;5067698;28;20056;-91
2021/03/10 06:25:23;;;;;;;8.00;3.13;;;8.70;99.90;;;;;;5066661;28;20045;-90
2021/03/10 06:28:00;;;;;;;13.23;3.70;;;8.70;99.90;;;;;;5062042;28;20393;-91
2021/03/10 06:30:34;;;;;;;10.50;2.92;;;8.70;99.90;;;;;;5064134;28;20055;-91
2021/03/10 06:33:01;;;;;;;6.93;3.47;;;8.70;99.90;;;;;;5072739;28;20462;-90
2021/03/10 06:35:32;;;;;;;12.02;3.78;;;8.80;99.90;;;;;;5066446;28;20044;-91
2021/03/10 06:38:07;;;;;;;11.23;3.35;;;8.80;99.90;;;;;;5064039;28;20094;-91
2021/03/10 06:40:34;;;;;;;6.05;3.13;;;8.80;99.90;;;;;;5063093;28;20045;-90
2021/03/10 06:43:01;;;;;;;8.70;3.30;;;8.80;99.90;;;;;;5065270;28;20040;-91
2021/03/10 06:45:32;;;;;;;8.70;3.00;;;8.70;99.90;;;;;;5073140;28;20067;-91
2021/03/10 06:47:59;;;;;;;5.45;2.55;;;8.80;99.90;;;;;;5071669;28;20063;-91
2021/03/10 06:50:34;;;;;;;9.23;2.97;;;8.80;99.90;;;;;;5071806;28;20135;-91
2021/03/10 06:53:01;;;;;;;10.35;2.60;;;8.80;99.90;;;;;;5074369;28;20048;-91
2021/03/10 06:55:45;;;;;;;8.88;2.90;;;8.80;99.90;;;;;;5067231;28;20524;-90
2021/03/10 06:58:22;;;;;;;10.77;3.47;;;8.90;99.90;;;;;;5060661;28;20488;-91
2021/03/10 07:01:00;;;;;;;7.10;2.78;;;8.90;99.90;;;;;;5080623;28;20131;-91
2021/03/10 07:03:28;;;;;;;11.80;2.90;;;8.90;99.90;;;;;;5072108;28;21127;-91
2021/03/10 07:09:43;;;;;;;7.50;3.13;;;8.90;99.90;;;;;;5049336;22;20080;-89
2021/03/10 07:12:13;;;;;;;9.70;2.92;;;8.90;99.90;;;;;;5053175;28;20503;-89
2021/03/10 07:14:39;;;;;;;;;;;9.00;99.90;;;;;;5068157;28;20594;-90
2021/03/10 07:17:07;;;;;;;9.52;3.10;;;9.00;99.90;;;;;;5067983;28;19920;-90
2021/03/10 07:19:35;;;;;;;10.93;3.47;;;9.00;99.90;;;;;;5068779;28;20044;-90
2021/03/10 07:22:10;;;;;;;7.30;3.08;;;9.00;99.90;;;;;;5064430;28;20668;-92
2021/03/10 07:24:56;;;;;;;7.65;2.83;;;9.00;99.90;;;;;;5068537;28;20044;-90
2021/03/10 07:27:24;;;;;;;11.68;3.25;;;9.10;99.90;;;;;;5067959;28;20056;-89
2021/03/10 07:29:58;;;;;;;9.57;3.25;;;9.00;99.90;;;;;;5067130;27;20512;-92
2021/03/10 07:32:26;;;;;;;11.77;2.97;;;9.10;99.90;;;;;;5067848;28;20052;-90
2021/03/10 07:35:03;;;;;;;11.70;4.03;;;9.00;99.90;;;;;;5067482;27;20555;-92
2021/03/10 07:37:30;;;;;;;6.18;3.13;;;9.00;99.90;;;;;;5075282;28;20044;-89
2021/03/10 07:40:09;;;;;;;13.40;3.50;;;9.00;99.90;;;;;;5067740;28;20044;-89
2021/03/10 07:42:47;;;;;;;8.38;3.28;;;9.00;99.90;;;;;;5062930;28;20045;-89
2021/03/10 07:45:14;;;;;;;;;;;9.00;99.90;;;;;;5073327;28;20044;-90
2021/03/10 07:47:56;;;;;;;13.20;3.88;;;9.00;99.90;;;;;;5071759;28;19920;-88
2021/03/10 07:50:39;;;;;;;11.10;3.22;;;9.00;99.90;;;;;;5095535;28;20067;-89
2021/03/10 07:53:06;;;;;;;10.48;3.30;;;8.90;99.90;;;;;;5064682;27;20040;-87
2021/03/10 07:55:46;;;;;;;12.15;4.07;;;8.90;99.90;;;;;;5066640;28;20412;-88
2021/03/10 07:58:24;;;;;;;14.63;3.95;;;9.00;99.90;;;;;;5066436;28;20040;-89
2021/03/10 08:00:51;;;;;;;11.23;3.90;;;9.00;99.90;;;;;;5058611;28;20053;-90
2021/03/10 08:03:32;;;;;;;10.68;4.03;;;9.00;99.90;;;;;;5066633;28;20051;-87
2021/03/10 08:06:06;;;;;;;10.93;3.85;;;9.00;99.90;;;;;;5073415;28;20048;-87
2021/03/10 08:08:43;;;;;;;11.88;4.35;;;9.00;99.90;;;;;;5075158;28;20093;-85
2021/03/10 08:11:16;;;;;;;13.07;4.20;;;9.10;99.90;;;;;;5061139;28;20049;-88
2021/03/10 08:13:44;;;;;;;9.38;4.10;;;9.10;99.90;;;;;;5062739;28;20389;-87
2021/03/10 08:16:12;;;;;;;11.80;4.30;;;9.10;99.90;;;;;;5068875;28;20047;-88
2021/03/10 08:18:45;;;;;;;11.70;4.03;;;9.20;99.90;;;;;;5055865;28;20134;-89
2021/03/10 08:21:15;;;;;;;13.52;3.90;;;9.10;99.90;;;;;;5071344;28;20397;-87
2021/03/10 08:23:41;;;;;;;10.82;3.65;;;9.10;99.90;;;;;;5069023;27;20085;-89
2021/03/10 08:26:08;;;;;;;12.32;4.28;;;9.10;99.90;;;;;;5063114;28;20056;-87
2021/03/10 08:28:37;;;;;;;11.82;4.40;;;9.10;99.90;;;;;;5068840;28;20035;-90
2021/03/10 08:31:05;;;;;;;;;;;9.20;99.90;;;;;;5071890;28;20101;-87
2021/03/10 08:33:45;;;;;;;12.98;3.42;;;9.10;99.90;;;;;;5070291;27;19920;-88
2021/03/10 08:36:13;;;;;;;14.35;4.60;;;9.20;99.90;;;;;;5069012;28;20051;-88
2021/03/10 08:38:40;;;;;;;10.98;4.35;;;9.10;99.90;;;;;;5073864;28;20405;-88
2021/03/10 08:41:08;;;;;;;14.18;4.43;;;9.20;99.90;;;;;;5074197;27;20105;-90
2021/03/10 08:43:35;;;;;;;17.13;5.15;;;9.20;99.90;;;;;;5073524;28;20085;-90
2021/03/10 08:46:03;;;;;;;13.20;4.63;;;9.20;99.90;;;;;;5072947;28;20048;-87
2021/03/10 08:48:33;;;;;;;13.90;4.43;;;9.20;99.90;;;;;;5074744;28;20386;-89
2021/03/10 08:51:02;;;;;;;13.07;4.50;;;9.20;99.90;;;;;;5066870;28;20056;-90
2021/03/10 08:53:29;;;;;;;15.80;4.30;;;9.20;99.90;;;;;;5068332;28;20037;-90
2021/03/10 08:56:05;;;;;;;15.52;5.18;;;9.20;99.90;;;;;;5069468;28;20044;-90
2021/03/10 08:58:31;;;;;;;15.55;4.90;;;9.20;99.90;;;;;;5068380;27;20051;-87
2021/03/10 09:01:11;;;;;;;17.35;5.13;;;9.20;99.90;;;;;;5071134;27;20067;-88
2021/03/10 09:03:43;;;;;;;18.40;6.00;;;9.20;99.90;;;;;;5071320;28;20044;-88
2021/03/10 09:06:11;;;;;;;15.20;5.22;;;9.20;99.90;;;;;;5090038;28;20058;-88
2021/03/10 09:08:40;;;;;;;16.63;6.05;;;9.20;99.90;;;;;;5071003;28;20048;-88
2021/03/10 09:11:07;;;;;;;13.10;4.72;;;9.20;99.90;;;;;;5071527;28;20040;-88
2021/03/10 09:13:34;;;;;;;12.98;4.53;;;9.20;99.90;;;;;;5071529;28;20044;-88
2021/03/10 09:16:11;;;;;;;14.88;5.35;;;9.20;99.90;;;;;;5068992;28;20094;-88
2021/03/10 09:18:38;;;;;;;15.75;6.15;;;9.20;99.90;;;;;;5066392;28;20550;-88
2021/03/10 09:21:04;;;;;;;16.30;5.43;;;9.10;99.90;;;;;;5068527;28;20070;-88
2021/03/10 09:23:32;;;;;;;13.35;5.15;;;9.20;99.90;;;;;;5081325;28;20040;-87
2021/03/10 09:25:58;;;;;;;16.85;4.95;;;9.10;99.90;;;;;;5076022;28;20052;-90
2021/03/10 09:28:34;;;;;;;12.98;4.65;;;9.10;99.90;;;;;;5071424;28;20089;-88
2021/03/10 09:31:13;;;;;;;10.80;5.20;;;9.10;99.90;;;;;;5072311;28;20478;-88
2021/03/10 09:33:41;;;;;;;11.37;5.00;;;9.20;99.90;;;;;;5070811;27;20051;-88
2021/03/10 09:36:08;;;;;;;11.43;5.07;;;9.20;99.90;;;;;;5066469;28;20097;-88
2021/03/10 09:38:35;;;;;;;14.25;4.93;;;9.20;99.90;;;;;;5073190;28;20044;-88
2021/03/10 09:41:03;;;;;;;15.55;5.47;;;9.20;99.90;;;;;;5071967;28;20040;-88
2021/03/10 09:43:33;;;;;;;14.32;5.38;;;9.20;99.90;;;;;;5069843;28;20048;-88
2021/03/10 09:46:05;;;;;;;15.30;5.40;;;9.20;99.90;;;;;;5071614;28;20036;-88
2021/03/10 09:48:38;;;;;;;14.77;5.32;;;9.10;99.90;;;;;;5072656;28;20052;-88
2021/03/10 09:51:18;;;;;;;12.50;6.13;;;9.20;99.90;;;;;;5078829;28;20044;-88
2021/03/10 09:53:48;;;;;;;16.00;5.90;;;9.20;99.90;;;;;;5061116;28;20040;-88
2021/03/10 09:56:16;;;;;;;16.38;6.50;;;9.20;99.90;;;;;;5073291;28;20079;-87
2021/03/10 09:58:47;;;;;;;13.65;5.80;;;9.20;99.90;;;;;;5068137;28;20470;-88
2021/03/10 10:01:14;;;;;;;11.68;5.32;;;9.20;99.90;;;;;;5080587;28;20043;-88
2021/03/10 10:03:41;;;;;;;12.80;6.20;;;9.20;99.90;;;;;;5069346;28;20044;-88
2021/03/10 10:06:09;;;;;;;13.13;6.32;;;9.20;99.90;;;;;;5072404;28;20416;-88
2021/03/10 10:08:38;;;;;;;13.18;6.95;;;9.20;99.90;;;;;;5076830;28;20078;-88
2021/03/10 10:11:12;;;;;;;16.35;6.57;;;9.20;99.90;;;;;;5072608;28;20044;-88
2021/03/10 10:13:48;;;;;;;15.68;7.03;;;9.20;99.90;;;;;;5065275;28;20082;-90
2021/03/10 10:16:15;;;;;;;14.82;6.82;;;9.20;99.90;;;;;;5067357;28;20379;-88
2021/03/10 10:18:43;;;;;;;11.15;5.57;;;9.20;99.90;;;;;;5068738;28;20044;-88
2021/03/10 10:21:09;;;;;;;14.02;6.00;;;9.30;99.90;;;;;;5072902;28;20048;-88
2021/03/10 10:23:36;;;;;;;12.75;6.15;;;9.30;99.90;;;;;;5072867;28;20047;-88
2021/03/10 10:26:03;;;;;;;12.77;5.95;;;9.30;99.90;;;;;;5073510;28;20060;-87
2021/03/10 10:28:29;;;;;;;14.20;6.55;;;9.30;99.90;;;;;;5067704;28;20092;-87
2021/03/10 10:30:57;;;;;;;11.40;6.22;;;9.30;99.90;;;;;;5066986;28;20048;-87
2021/03/10 10:33:26;;;;;;;9.18;6.10;;;9.30;99.90;;;;;;5071351;28;20412;-88
2021/03/10 10:35:54;;;;;;;9.20;5.25;;;9.40;99.90;;;;;;5071197;28;20036;-89
2021/03/10 10:38:20;;;;;;;9.48;5.18;;;9.40;99.90;;;;;;5071476;28;20095;-89
2021/03/10 10:40:47;;;;;;;10.30;5.32;;;9.40;99.90;;;;;;5077685;28;20067;-89
2021/03/10 10:43:14;;;;;;;11.05;5.70;;;9.40;99.90;;;;;;5069430;28;21124;-88
2021/03/10 10:45:41;;;;;;;9.25;5.90;;;9.40;99.90;;;;;;5068026;28;20108;-88
2021/03/10 10:48:07;;;;;;;5.50;4.47;;;9.50;99.90;;;;;;5072724;28;20052;-88
2021/03/10 10:50:36;;;;;;;10.25;5.78;;;9.50;99.90;;;;;;5073335;28;20063;-88
2021/03/10 10:53:07;;;;;;;8.05;5.57;;;9.50;99.90;;;;;;5072621;28;20044;-88
2021/03/10 10:55:33;;;;;;;10.93;6.22;;;9.50;99.90;;;;;;5070285;28;20062;-88
2021/03/10 10:58:00;;;;;;;8.80;5.47;;;9.50;99.90;;;;;;5073995;28;20040;-88
2021/03/10 11:00:27;;;;;;;9.70;6.10;;;9.60;99.90;;;;;;5071829;28;20044;-88
2021/03/10 11:02:54;;;;;;;9.25;6.05;;;9.60;99.90;;;;;;5070324;28;20052;-88
2021/03/10 11:05:22;;;;;;;7.72;5.45;;;9.60;99.90;;;;;;5067604;28;20032;-88
2021/03/10 11:07:49;;;;;;;11.77;6.53;;;9.60;99.90;;;;;;5069945;28;20375;-88
2021/03/10 11:10:16;;;;;;;13.35;8.15;;;9.70;99.90;;;;;;5071231;28;20550;-88
2021/03/10 11:12:42;;;;;;;11.32;8.48;;;9.70;99.90;;;;;;5069211;28;20044;-88
2021/03/10 11:15:09;;;;;;;11.45;8.02;;;9.70;99.90;;;;;;5073103;28;20469;-88
2021/03/10 11:17:36;;;;;;;10.73;8.57;;;9.80;99.90;;;;;;5067929;28;20127;-88
2021/03/10 11:20:06;;;;;;;12.48;8.82;;;9.80;99.90;;;;;;5067754;28;20048;-88
2021/03/10 11:22:34;;;;;;;10.20;8.10;;;9.80;99.90;;;;;;5072161;28;20054;-87
2021/03/10 11:25:01;;;;;;;10.18;8.00;;;9.80;99.90;;;;;;5069896;28;20074;-88
2021/03/10 11:27:27;;;;;;;9.73;7.05;;;9.80;99.90;;;;;;5073362;28;20052;-87
2021/03/10 11:29:54;;;;;;;8.43;6.30;;;9.90;99.90;;;;;;5069674;28;20466;-87
2021/03/10 11:32:20;;;;;;;10.90;6.43;;;9.90;99.90;;;;;;5068373;28;20048;-89
2021/03/10 11:34:47;;;;;;;8.80;6.40;;;9.90;99.90;;;;;;5070321;28;20039;-88
2021/03/10 11:37:15;;;;;;;9.43;6.45;;;10.00;99.90;;;;;;5070993;28;20047;-87
2021/03/10 11:39:41;;;;;;;10.65;7.35;;;10.00;99.90;;;;;;5069307;28;20048;-87
2021/03/10 11:42:08;;;;;;;12.10;8.73;;;10.00;99.90;;;;;;5072912;28;20092;-88
2021/03/10 11:44:35;;;;;;;8.90;7.05;;;10.00;99.90;;;;;;5065330;28;20140;-90
2021/03/10 11:47:02;;;;;;;9.43;7.28;;;10.00;99.90;;;;;;5068785;27;20156;-89
2021/03/10 11:49:29;;;;;;;11.10;7.38;;;10.10;99.90;;;;;;5072896;28;20040;-89
2021/03/10 11:51:56;;;;;;;8.98;6.22;;;10.10;99.90;;;;;;5068855;27;20506;-89
2021/03/10 11:54:24;;;;;;;7.03;6.30;;;10.10;99.90;;;;;;5068046;28;20076;-89
2021/03/10 11:56:51;;;;;;;7.57;6.38;;;10.20;99.90;;;;;;5065256;28;20041;-89
2021/03/10 11:59:18;;;;;;;9.48;5.93;;;10.20;99.90;;;;;;5076366;28;20265;-89
2021/03/10 12:01:44;;;;;;;7.68;6.10;;;10.20;99.90;;;;;;5075641;28;20046;-90
2021/03/10 12:04:11;;;;;;;10.95;7.50;;;10.20;99.90;;;;;;5076335;28;20040;-87
2021/03/10 12:06:37;;;;;;;12.55;8.52;;;10.20;99.90;;;;;;5076465;28;20104;-89
2021/03/10 12:09:04;;;;;;;9.23;7.35;;;10.20;99.90;;;;;;5078082;28;20102;-89
2021/03/10 12:11:32;;;;;;;10.93;6.63;;;10.20;99.90;;;;;;5075713;28;20044;-87
2021/03/10 12:14:19;;;;;;;8.57;6.00;;;10.20;99.90;;;;;;5074364;28;20056;-90
2021/03/10 12:16:46;;;;;;;7.72;6.00;;;10.20;99.90;;;;;;5071866;27;20039;-87
2021/03/10 12:19:12;;;;;;;8.05;6.57;;;10.20;99.90;;;;;;5069828;28;20068;-87
2021/03/10 12:21:39;;;;;;;7.72;5.20;;;10.30;99.90;;;;;;5074048;27;20052;-87
2021/03/10 12:24:06;;;;;;;7.65;4.70;;;10.30;99.90;;;;;;5074405;28;20474;-90
2021/03/10 12:26:33;;;;;;;8.27;4.80;;;10.30;99.90;;;;;;5082585;28;20040;-89
2021/03/10 12:29:00;;;;;;;8.50;5.40;;;10.40;99.90;;;;;;5071392;28;20040;-89
2021/03/10 12:31:27;;;;;;;7.05;5.28;;;10.40;99.90;;;;;;5071690;28;20043;-89
2021/03/10 12:33:54;;;;;;;7.40;4.90;;;10.40;99.90;;;;;;5073450;27;20086;-88
2021/03/10 12:36:21;;;;;;;5.65;4.57;;;10.40;99.90;;;;;;5077119;28;20048;-87
2021/03/10 12:38:47;;;;;;;7.18;3.67;;;10.40;99.90;;;;;;5070284;28;20043;-87
2021/03/10 12:41:14;;;;;;;4.40;3.25;;;10.40;99.90;;;;;;5067466;27;20041;-87
2021/03/10 12:43:41;;;;;;;5.45;3.03;;;10.50;99.90;;;;;;5067182;28;20470;-87
2021/03/10 12:46:07;;;;;;;4.30;3.30;;;10.50;99.90;;;;;;5071466;28;20047;-87
2021/03/10 12:48:37;;;;;;;4.47;2.88;;;10.50;99.90;;;;;;5072635;28;20105;-87
2021/03/10 12:51:05;;;;;;;6.13;3.53;;;10.50;99.90;;;;;;5074639;28;20117;-87
2021/03/10 12:53:32;;;;;;;4.93;3.65;;;10.50;99.90;;;;;;5073658;28;20058;-88
2021/03/10 12:55:59;;;;;;;6.30;4.63;;;10.50;99.90;;;;;;5070866;28;20058;-87
2021/03/10 12:58:25;;;;;;;9.02;4.50;;;10.50;99.90;;;;;;5067589;28;20124;-87
2021/03/10 13:00:52;;;;;;;5.28;3.92;;;10.60;99.90;;;;;;5061198;28;20064;-87
2021/03/10 13:03:18;;;;;;;4.53;3.95;;;10.60;99.90;;;;;;5094351;28;20051;-87